sensor_id;sensor_type;location;lat;lon;timestamp;pressure;altitude;pressure_sealevel;temperature
41654;BMP280;68687;52.030;7.110;2023-03-31T00:01:29;99710.09;;;9.51
41654;BMP280;68687;52.030;7.110;2023-03-31T00:03:55;99704.13;;;9.49
41654;BMP280;68687;52.030;7.110;2023-03-31T00:06:27;99701.41;;;9.43
41654;BMP280;68687;52.030;7.110;2023-03-31T00:08:52;99696.88;;;9.37
41654;BMP280;68687;52.030;7.110;2023-03-31T00:11:19;99683.28;;;9.38
41654;BMP280;68687;52.030;7.110;2023-03-31T00:13:45;99676.47;;;9.36
41654;BMP280;68687;52.030;7.110;2023-03-31T00:16:10;99678.72;;;9.32
41654;BMP280;68687;52.030;7.110;2023-03-31T00:18:36;99673.19;;;9.40
41654;BMP280;68687;52.030;7.110;2023-03-31T00:21:12;99682.06;;;9.47
41654;BMP280;68687;52.030;7.110;2023-03-31T00:23:40;99678.25;;;9.28
41654;BMP280;68687;52.030;7.110;2023-03-31T00:26:05;99675.88;;;9.40
41654;BMP280;68687;52.030;7.110;2023-03-31T00:28:31;99681.00;;;9.35
41654;BMP280;68687;52.030;7.110;2023-03-31T00:31:01;99660.19;;;9.37
41654;BMP280;68687;52.030;7.110;2023-03-31T00:33:27;99668.78;;;9.26
41654;BMP280;68687;52.030;7.110;2023-03-31T00:35:52;99657.50;;;9.37
41654;BMP280;68687;52.030;7.110;2023-03-31T00:38:17;99656.91;;;9.42
41654;BMP280;68687;52.030;7.110;2023-03-31T00:40:46;99652.81;;;9.52
41654;BMP280;68687;52.030;7.110;2023-03-31T00:43:25;99645.38;;;9.48
41654;BMP280;68687;52.030;7.110;2023-03-31T00:45:53;99645.59;;;9.53
41654;BMP280;68687;52.030;7.110;2023-03-31T00:48:19;99639.84;;;9.56
41654;BMP280;68687;52.030;7.110;2023-03-31T00:50:54;99635.16;;;9.65
41654;BMP280;68687;52.030;7.110;2023-03-31T00:53:24;99634.72;;;9.61
41654;BMP280;68687;52.030;7.110;2023-03-31T00:55:53;99627.31;;;9.63
41654;BMP280;68687;52.030;7.110;2023-03-31T00:58:20;99615.38;;;9.66
41654;BMP280;68687;52.030;7.110;2023-03-31T01:00:53;99613.72;;;9.65
41654;BMP280;68687;52.030;7.110;2023-03-31T01:03:19;99610.41;;;9.63
41654;BMP280;68687;52.030;7.110;2023-03-31T01:05:56;99608.38;;;9.65
41654;BMP280;68687;52.030;7.110;2023-03-31T01:08:25;99602.41;;;9.76
41654;BMP280;68687;52.030;7.110;2023-03-31T01:10:54;99594.75;;;9.66
41654;BMP280;68687;52.030;7.110;2023-03-31T01:13:20;99596.41;;;9.67
41654;BMP280;68687;52.030;7.110;2023-03-31T01:15:46;99584.25;;;9.71
41654;BMP280;68687;52.030;7.110;2023-03-31T01:18:13;99594.97;;;9.65
41654;BMP280;68687;52.030;7.110;2023-03-31T01:23:21;99575.19;;;9.79
41654;BMP280;68687;52.030;7.110;2023-03-31T01:25:54;99569.59;;;9.67
41654;BMP280;68687;52.030;7.110;2023-03-31T01:29:05;99566.72;;;9.82
41654;BMP280;68687;52.030;7.110;2023-03-31T01:31:31;99565.28;;;9.79
41654;BMP280;68687;52.030;7.110;2023-03-31T01:40:18;99548.81;;;9.96
41654;BMP280;68687;52.030;7.110;2023-03-31T01:42:56;99541.16;;;9.86
41654;BMP280;68687;52.030;7.110;2023-03-31T01:45:39;99539.09;;;9.75
41654;BMP280;68687;52.030;7.110;2023-03-31T01:48:11;99539.94;;;9.69
41654;BMP280;68687;52.030;7.110;2023-03-31T01:50:58;99537.88;;;9.71
41654;BMP280;68687;52.030;7.110;2023-03-31T01:53:35;99533.34;;;9.65
41654;BMP280;68687;52.030;7.110;2023-03-31T01:56:15;99527.94;;;9.58
41654;BMP280;68687;52.030;7.110;2023-03-31T02:01:56;99510.00;;;9.58
41654;BMP280;68687;52.030;7.110;2023-03-31T02:04:36;99504.22;;;9.48
41654;BMP280;68687;52.030;7.110;2023-03-31T02:07:08;99503.25;;;9.63
41654;BMP280;68687;52.030;7.110;2023-03-31T02:09:40;99498.91;;;9.62
41654;BMP280;68687;52.030;7.110;2023-03-31T02:12:08;99492.06;;;9.52
41654;BMP280;68687;52.030;7.110;2023-03-31T02:14:38;99489.19;;;9.47
41654;BMP280;68687;52.030;7.110;2023-03-31T02:17:06;99476.00;;;9.46
41654;BMP280;68687;52.030;7.110;2023-03-31T02:19:37;99479.50;;;9.53
41654;BMP280;68687;52.030;7.110;2023-03-31T02:22:07;99476.03;;;9.59
41654;BMP280;68687;52.030;7.110;2023-03-31T02:24:35;99465.69;;;9.49
41654;BMP280;68687;52.030;7.110;2023-03-31T02:27:16;99467.34;;;9.44
41654;BMP280;68687;52.030;7.110;2023-03-31T02:29:43;99458.69;;;9.48
41654;BMP280;68687;52.030;7.110;2023-03-31T02:32:10;99450.47;;;9.43
41654;BMP280;68687;52.030;7.110;2023-03-31T02:34:38;99438.50;;;9.39
41654;BMP280;68687;52.030;7.110;2023-03-31T02:37:04;99437.25;;;9.48
41654;BMP280;68687;52.030;7.110;2023-03-31T02:39:33;99426.56;;;9.35
41654;BMP280;68687;52.030;7.110;2023-03-31T02:42:00;99415.00;;;9.41
41654;BMP280;68687;52.030;7.110;2023-03-31T02:44:34;99406.38;;;9.39
41654;BMP280;68687;52.030;7.110;2023-03-31T02:47:05;99402.66;;;9.40
41654;BMP280;68687;52.030;7.110;2023-03-31T02:49:32;99398.94;;;9.35
41654;BMP280;68687;52.030;7.110;2023-03-31T03:09:22;99365.56;;;9.17
41654;BMP280;68687;52.030;7.110;2023-03-31T03:14:45;99346.19;;;9.22
41654;BMP280;68687;52.030;7.110;2023-03-31T03:17:17;99336.50;;;9.21
41654;BMP280;68687;52.030;7.110;2023-03-31T03:19:51;99334.25;;;9.18
41654;BMP280;68687;52.030;7.110;2023-03-31T03:22:17;99330.97;;;9.16
41654;BMP280;68687;52.030;7.110;2023-03-31T03:24:42;99310.56;;;9.15
41654;BMP280;68687;52.030;7.110;2023-03-31T03:27:07;99307.47;;;9.18
41654;BMP280;68687;52.030;7.110;2023-03-31T03:29:33;99305.41;;;9.20
41654;BMP280;68687;52.030;7.110;2023-03-31T03:31:58;99300.88;;;9.20
41654;BMP280;68687;52.030;7.110;2023-03-31T03:34:23;99295.13;;;9.17
41654;BMP280;68687;52.030;7.110;2023-03-31T03:36:49;99284.41;;;9.17
41654;BMP280;68687;52.030;7.110;2023-03-31T03:39:15;99281.09;;;9.28
41654;BMP280;68687;52.030;7.110;2023-03-31T03:41:41;99283.19;;;9.19
41654;BMP280;68687;52.030;7.110;2023-03-31T03:44:06;99274.53;;;9.17
41654;BMP280;68687;52.030;7.110;2023-03-31T03:46:31;99272.69;;;9.18
41654;BMP280;68687;52.030;7.110;2023-03-31T03:48:57;99273.28;;;9.26
41654;BMP280;68687;52.030;7.110;2023-03-31T03:51:22;99268.97;;;9.19
41654;BMP280;68687;52.030;7.110;2023-03-31T03:53:47;99273.72;;;9.17
41654;BMP280;68687;52.030;7.110;2023-03-31T03:56:13;99272.69;;;9.18
41654;BMP280;68687;52.030;7.110;2023-03-31T03:58:38;99255.97;;;9.22
41654;BMP280;68687;52.030;7.110;2023-03-31T04:01:03;99247.94;;;9.22
41654;BMP280;68687;52.030;7.110;2023-03-31T04:03:29;99247.31;;;9.27
41654;BMP280;68687;52.030;7.110;2023-03-31T04:05:55;99239.09;;;9.15
41654;BMP280;68687;52.030;7.110;2023-03-31T04:08:20;99225.91;;;9.27
41654;BMP280;68687;52.030;7.110;2023-03-31T04:10:47;99225.09;;;9.33
41654;BMP280;68687;52.030;7.110;2023-03-31T04:13:14;99220.94;;;9.30
41654;BMP280;68687;52.030;7.110;2023-03-31T04:15:39;99206.13;;;9.28
41654;BMP280;68687;52.030;7.110;2023-03-31T04:18:05;99207.38;;;9.19
41654;BMP280;68687;52.030;7.110;2023-03-31T04:20:30;99206.56;;;9.32
41654;BMP280;68687;52.030;7.110;2023-03-31T04:22:56;99212.09;;;9.30
41654;BMP280;68687;52.030;7.110;2023-03-31T04:25:21;99200.97;;;9.33
41654;BMP280;68687;52.030;7.110;2023-03-31T04:27:50;99190.47;;;9.25
41654;BMP280;68687;52.030;7.110;2023-03-31T04:30:23;99177.91;;;9.32
41654;BMP280;68687;52.030;7.110;2023-03-31T04:32:58;99178.75;;;9.33
41654;BMP280;68687;52.030;7.110;2023-03-31T04:35:27;99177.72;;;9.34
41654;BMP280;68687;52.030;7.110;2023-03-31T04:38:02;99153.81;;;9.32
41654;BMP280;68687;52.030;7.110;2023-03-31T04:40:27;99154.00;;;9.37
41654;BMP280;68687;52.030;7.110;2023-03-31T04:42:53;99150.94;;;9.34
41654;BMP280;68687;52.030;7.110;2023-03-31T04:45:18;99141.25;;;9.33
41654;BMP280;68687;52.030;7.110;2023-03-31T04:47:43;99130.75;;;9.24
41654;BMP280;68687;52.030;7.110;2023-03-31T04:50:09;99136.50;;;9.28
41654;BMP280;68687;52.030;7.110;2023-03-31T04:52:35;99130.72;;;9.31
41654;BMP280;68687;52.030;7.110;2023-03-31T04:55:00;99123.97;;;9.22
41654;BMP280;68687;52.030;7.110;2023-03-31T04:57:26;99134.28;;;9.18
41654;BMP280;68687;52.030;7.110;2023-03-31T04:59:51;99135.31;;;9.17
41654;BMP280;68687;52.030;7.110;2023-03-31T05:02:16;99138.19;;;9.16
41654;BMP280;68687;52.030;7.110;2023-03-31T05:04:48;99136.94;;;9.32
41654;BMP280;68687;52.030;7.110;2023-03-31T05:07:13;99126.63;;;9.22
41654;BMP280;68687;52.030;7.110;2023-03-31T05:09:38;99122.53;;;9.19
41654;BMP280;68687;52.030;7.110;2023-03-31T05:12:04;99128.75;;;9.13
41654;BMP280;68687;52.030;7.110;2023-03-31T05:14:29;99118.44;;;9.17
41654;BMP280;68687;52.030;7.110;2023-03-31T05:16:54;99105.47;;;9.14
41654;BMP280;68687;52.030;7.110;2023-03-31T05:19:21;99105.66;;;9.19
41654;BMP280;68687;52.030;7.110;2023-03-31T05:21:47;99095.53;;;9.21
41654;BMP280;68687;52.030;7.110;2023-03-31T05:24:13;99089.97;;;9.22
41654;BMP280;68687;52.030;7.110;2023-03-31T05:26:38;99079.66;;;9.26
41654;BMP280;68687;52.030;7.110;2023-03-31T05:29:05;99068.13;;;9.25
41654;BMP280;68687;52.030;7.110;2023-03-31T05:31:30;99064.03;;;9.23
41654;BMP280;68687;52.030;7.110;2023-03-31T05:33:55;99059.34;;;9.12
41654;BMP280;68687;52.030;7.110;2023-03-31T05:36:21;99053.75;;;9.20
41654;BMP280;68687;52.030;7.110;2023-03-31T05:38:47;99038.94;;;9.17
41654;BMP280;68687;52.030;7.110;2023-03-31T05:41:12;99051.53;;;9.10
41654;BMP280;68687;52.030;7.110;2023-03-31T05:43:38;99053.22;;;9.05
41654;BMP280;68687;52.030;7.110;2023-03-31T05:46:03;99048.38;;;9.20
41654;BMP280;68687;52.030;7.110;2023-03-31T05:48:29;99027.41;;;9.17
41654;BMP280;68687;52.030;7.110;2023-03-31T05:50:58;99023.81;;;9.29
41654;BMP280;68687;52.030;7.110;2023-03-31T05:53:25;99014.97;;;9.29
41654;BMP280;68687;52.030;7.110;2023-03-31T05:55:58;99013.69;;;9.38
41654;BMP280;68687;52.030;7.110;2023-03-31T05:58:25;99014.53;;;9.39
41654;BMP280;68687;52.030;7.110;2023-03-31T06:01:09;99000.13;;;9.33
41654;BMP280;68687;52.030;7.110;2023-03-31T06:03:36;98986.16;;;9.24
41654;BMP280;68687;52.030;7.110;2023-03-31T06:06:03;98995.91;;;9.50
41654;BMP280;68687;52.030;7.110;2023-03-31T06:08:30;98986.06;;;9.44
41654;BMP280;68687;52.030;7.110;2023-03-31T06:10:56;98983.53;;;9.49
41654;BMP280;68687;52.030;7.110;2023-03-31T06:13:21;98987.22;;;9.55
41654;BMP280;68687;52.030;7.110;2023-03-31T06:15:57;98973.69;;;9.43
41654;BMP280;68687;52.030;7.110;2023-03-31T06:18:22;98960.91;;;9.45
41654;BMP280;68687;52.030;7.110;2023-03-31T06:20:48;98954.13;;;9.43
41654;BMP280;68687;52.030;7.110;2023-03-31T06:23:14;98955.34;;;9.47
41654;BMP280;68687;52.030;7.110;2023-03-31T06:25:40;98946.47;;;9.46
41654;BMP280;68687;52.030;7.110;2023-03-31T06:28:05;98953.41;;;9.54
41654;BMP280;68687;52.030;7.110;2023-03-31T06:30:31;98939.25;;;9.47
41654;BMP280;68687;52.030;7.110;2023-03-31T06:32:57;98943.59;;;9.48
41654;BMP280;68687;52.030;7.110;2023-03-31T06:35:22;98945.28;;;9.42
41654;BMP280;68687;52.030;7.110;2023-03-31T06:37:47;98933.09;;;9.46
41654;BMP280;68687;52.030;7.110;2023-03-31T06:40:13;98926.75;;;9.41
41654;BMP280;68687;52.030;7.110;2023-03-31T06:42:38;98931.63;;;9.50
41654;BMP280;68687;52.030;7.110;2023-03-31T06:45:04;98922.22;;;9.41
41654;BMP280;68687;52.030;7.110;2023-03-31T06:47:29;98918.28;;;9.44
41654;BMP280;68687;52.030;7.110;2023-03-31T06:49:55;98919.25;;;9.49
41654;BMP280;68687;52.030;7.110;2023-03-31T06:52:20;98920.56;;;9.40
41654;BMP280;68687;52.030;7.110;2023-03-31T06:54:45;98919.53;;;9.41
41654;BMP280;68687;52.030;7.110;2023-03-31T06:57:11;98907.03;;;9.35
41654;BMP280;68687;52.030;7.110;2023-03-31T06:59:37;98906.63;;;9.32
41654;BMP280;68687;52.030;7.110;2023-03-31T07:02:02;98904.81;;;9.50
41654;BMP280;68687;52.030;7.110;2023-03-31T07:04:28;98895.00;;;9.44
41654;BMP280;68687;52.030;7.110;2023-03-31T07:06:53;98892.47;;;9.49
41654;BMP280;68687;52.030;7.110;2023-03-31T07:09:19;98902.72;;;9.59
41654;BMP280;68687;52.030;7.110;2023-03-31T07:11:47;98900.44;;;9.56
41654;BMP280;68687;52.030;7.110;2023-03-31T07:14:13;98908.16;;;9.71
41654;BMP280;68687;52.030;7.110;2023-03-31T07:16:38;98903.25;;;9.68
41654;BMP280;68687;52.030;7.110;2023-03-31T07:19:05;98903.41;;;9.73
41654;BMP280;68687;52.030;7.110;2023-03-31T07:21:31;98899.41;;;9.57
41654;BMP280;68687;52.030;7.110;2023-03-31T07:23:56;98897.97;;;9.61
41654;BMP280;68687;52.030;7.110;2023-03-31T07:26:22;98911.28;;;9.68
41654;BMP280;68687;52.030;7.110;2023-03-31T07:28:48;98894.03;;;9.64
41654;BMP280;68687;52.030;7.110;2023-03-31T07:31:14;98892.16;;;9.64
41654;BMP280;68687;52.030;7.110;2023-03-31T07:33:39;98910.41;;;9.74
41654;BMP280;68687;52.030;7.110;2023-03-31T07:36:06;98908.22;;;9.64
41654;BMP280;68687;52.030;7.110;2023-03-31T07:38:32;98900.84;;;9.59
41654;BMP280;68687;52.030;7.110;2023-03-31T07:40:58;98898.94;;;9.67
41654;BMP280;68687;52.030;7.110;2023-03-31T07:43:23;98894.31;;;9.74
41654;BMP280;68687;52.030;7.110;2023-03-31T07:45:48;98896.50;;;9.58
41654;BMP280;68687;52.030;7.110;2023-03-31T07:48:14;98887.66;;;9.58
41654;BMP280;68687;52.030;7.110;2023-03-31T07:50:39;98890.22;;;9.71
41654;BMP280;68687;52.030;7.110;2023-03-31T07:53:04;98894.03;;;9.64
41654;BMP280;68687;52.030;7.110;2023-03-31T07:55:30;98892.41;;;9.56
41654;BMP280;68687;52.030;7.110;2023-03-31T07:57:56;98892.59;;;9.61
41654;BMP280;68687;52.030;7.110;2023-03-31T08:00:21;98892.03;;;9.52
41654;BMP280;68687;52.030;7.110;2023-03-31T08:02:46;98883.53;;;9.37
41654;BMP280;68687;52.030;7.110;2023-03-31T08:05:16;98877.50;;;9.42
41654;BMP280;68687;52.030;7.110;2023-03-31T08:07:44;98878.16;;;9.37
41654;BMP280;68687;52.030;7.110;2023-03-31T08:10:13;98880.13;;;9.48
41654;BMP280;68687;52.030;7.110;2023-03-31T08:12:39;98881.06;;;9.36
41654;BMP280;68687;52.030;7.110;2023-03-31T08:15:05;98876.97;;;9.33
41654;BMP280;68687;52.030;7.110;2023-03-31T08:17:31;98865.47;;;9.26
41654;BMP280;68687;52.030;7.110;2023-03-31T08:19:56;98863.06;;;9.18
41654;BMP280;68687;52.030;7.110;2023-03-31T08:22:22;98869.00;;;9.20
41654;BMP280;68687;52.030;7.110;2023-03-31T08:24:47;98866.19;;;9.15
41654;BMP280;68687;52.030;7.110;2023-03-31T08:27:12;98858.22;;;9.02
41654;BMP280;68687;52.030;7.110;2023-03-31T08:29:38;98875.59;;;8.92
41654;BMP280;68687;52.030;7.110;2023-03-31T08:32:03;98872.75;;;8.87
41654;BMP280;68687;52.030;7.110;2023-03-31T08:34:29;98883.44;;;8.87
41654;BMP280;68687;52.030;7.110;2023-03-31T08:36:54;98870.78;;;8.70
41654;BMP280;68687;52.030;7.110;2023-03-31T08:39:19;98870.31;;;8.79
41654;BMP280;68687;52.030;7.110;2023-03-31T08:42:33;98859.41;;;8.74
41654;BMP280;68687;52.030;7.110;2023-03-31T08:45:30;98867.34;;;8.94
41654;BMP280;68687;52.030;7.110;2023-03-31T08:47:58;98868.25;;;8.81
41654;BMP280;68687;52.030;7.110;2023-03-31T08:50:27;98856.50;;;8.82
41654;BMP280;68687;52.030;7.110;2023-03-31T08:53:23;98847.63;;;8.88
41654;BMP280;68687;52.030;7.110;2023-03-31T08:55:51;98852.81;;;8.83
41654;BMP280;68687;52.030;7.110;2023-03-31T09:09:44;98834.72;;;9.04
41654;BMP280;68687;52.030;7.110;2023-03-31T09:12:40;98832.69;;;9.06
41654;BMP280;68687;52.030;7.110;2023-03-31T09:15:09;98833.91;;;9.03
41654;BMP280;68687;52.030;7.110;2023-03-31T09:17:41;98830.19;;;9.11
41654;BMP280;68687;52.030;7.110;2023-03-31T09:22:50;98827.72;;;9.34
41654;BMP280;68687;52.030;7.110;2023-03-31T09:25:25;98825.44;;;9.38
41654;BMP280;68687;52.030;7.110;2023-03-31T09:27:54;98827.28;;;9.37
41654;BMP280;68687;52.030;7.110;2023-03-31T09:30:27;98824.09;;;9.47
41654;BMP280;68687;52.030;7.110;2023-03-31T09:33:13;98817.63;;;9.36
41654;BMP280;68687;52.030;7.110;2023-03-31T09:35:40;98820.44;;;9.41
41654;BMP280;68687;52.030;7.110;2023-03-31T09:38:10;98811.38;;;9.42
41654;BMP280;68687;52.030;7.110;2023-03-31T09:40:37;98802.22;;;9.50
41654;BMP280;68687;52.030;7.110;2023-03-31T09:43:05;98806.47;;;9.57
41654;BMP280;68687;52.030;7.110;2023-03-31T09:45:32;98808.13;;;9.77
41654;BMP280;68687;52.030;7.110;2023-03-31T09:48:03;98792.81;;;9.66
41654;BMP280;68687;52.030;7.110;2023-03-31T09:50:34;98792.00;;;9.65
41654;BMP280;68687;52.030;7.110;2023-03-31T09:53:03;98793.69;;;9.59
41654;BMP280;68687;52.030;7.110;2023-03-31T09:55:44;98793.31;;;9.56
41654;BMP280;68687;52.030;7.110;2023-03-31T09:58:14;98788.50;;;9.65
41654;BMP280;68687;52.030;7.110;2023-03-31T10:00:41;98790.88;;;9.73
41654;BMP280;68687;52.030;7.110;2023-03-31T10:03:11;98793.84;;;9.83
41654;BMP280;68687;52.030;7.110;2023-03-31T10:05:39;98782.03;;;9.90
41654;BMP280;68687;52.030;7.110;2023-03-31T10:10:49;98784.16;;;10.00
41654;BMP280;68687;52.030;7.110;2023-03-31T10:13:18;98770.03;;;9.93
41654;BMP280;68687;52.030;7.110;2023-03-31T10:15:45;98765.41;;;10.00
41654;BMP280;68687;52.030;7.110;2023-03-31T10:18:15;98774.25;;;10.19
41654;BMP280;68687;52.030;7.110;2023-03-31T10:20:49;98769.06;;;10.24
41654;BMP280;68687;52.030;7.110;2023-03-31T10:23:21;98762.47;;;10.20
41654;BMP280;68687;52.030;7.110;2023-03-31T10:25:47;98757.69;;;10.40
41654;BMP280;68687;52.030;7.110;2023-03-31T10:28:18;98754.09;;;10.46
41654;BMP280;68687;52.030;7.110;2023-03-31T10:30:56;98753.41;;;10.51
41654;BMP280;68687;52.030;7.110;2023-03-31T10:33:24;98757.47;;;10.42
41654;BMP280;68687;52.030;7.110;2023-03-31T10:35:58;98762.78;;;10.30
41654;BMP280;68687;52.030;7.110;2023-03-31T10:38:50;98753.53;;;10.44
41654;BMP280;68687;52.030;7.110;2023-03-31T10:41:21;98756.63;;;10.71
41654;BMP280;68687;52.030;7.110;2023-03-31T10:43:57;98757.22;;;10.73
41654;BMP280;68687;52.030;7.110;2023-03-31T10:46:49;98756.63;;;10.71
41654;BMP280;68687;52.030;7.110;2023-03-31T10:49:24;98756.34;;;10.61
41654;BMP280;68687;52.030;7.110;2023-03-31T10:51:55;98751.91;;;10.55
41654;BMP280;68687;52.030;7.110;2023-03-31T10:54:22;98751.91;;;10.55
41654;BMP280;68687;52.030;7.110;2023-03-31T10:56:50;98756.09;;;10.51
41654;BMP280;68687;52.030;7.110;2023-03-31T11:05:45;98745.69;;;10.43
41654;BMP280;68687;52.030;7.110;2023-03-31T11:08:26;98739.34;;;10.67
41654;BMP280;68687;52.030;7.110;2023-03-31T11:14:19;98731.31;;;10.91
41654;BMP280;68687;52.030;7.110;2023-03-31T11:23:37;98728.50;;;12.48
41654;BMP280;68687;52.030;7.110;2023-03-31T11:25:48;98711.72;;;13.08
41654;BMP280;68687;52.030;7.110;2023-03-31T11:36:22;98703.00;;;12.67
41654;BMP280;68687;52.030;7.110;2023-03-31T11:39:02;98701.75;;;12.58
41654;BMP280;68687;52.030;7.110;2023-03-31T11:41:41;98700.63;;;12.54
41654;BMP280;68687;52.030;7.110;2023-03-31T11:44:14;98699.50;;;12.66
41654;BMP280;68687;52.030;7.110;2023-03-31T11:46:59;98710.75;;;12.80
41654;BMP280;68687;52.030;7.110;2023-03-31T11:49:35;98710.25;;;12.83
41654;BMP280;68687;52.030;7.110;2023-03-31T11:52:27;98700.13;;;13.07
41654;BMP280;68687;52.030;7.110;2023-03-31T11:55:18;98700.72;;;13.26
41654;BMP280;68687;52.030;7.110;2023-03-31T11:57:55;98689.22;;;12.97
41654;BMP280;68687;52.030;7.110;2023-03-31T12:00:32;98690.94;;;12.69
41654;BMP280;68687;52.030;7.110;2023-03-31T12:03:22;98700.94;;;12.57
41654;BMP280;68687;52.030;7.110;2023-03-31T12:05:56;98711.47;;;12.14
41654;BMP280;68687;52.030;7.110;2023-03-31T12:09:03;98709.75;;;12.07
41654;BMP280;68687;52.030;7.110;2023-03-31T12:11:59;98706.00;;;12.09
41654;BMP280;68687;52.030;7.110;2023-03-31T12:14:36;98714.97;;;12.14
41654;BMP280;68687;52.030;7.110;2023-03-31T12:22:18;98702.03;;;12.28
41654;BMP280;68687;52.030;7.110;2023-03-31T12:24:46;98699.63;;;12.43
41654;BMP280;68687;52.030;7.110;2023-03-31T12:27:29;98694.09;;;12.33
41654;BMP280;68687;52.030;7.110;2023-03-31T12:30:03;98693.53;;;12.48
41654;BMP280;68687;52.030;7.110;2023-03-31T12:32:33;98683.78;;;12.30
41654;BMP280;68687;52.030;7.110;2023-03-31T12:35:23;98691.09;;;12.18
41654;BMP280;68687;52.030;7.110;2023-03-31T12:38:18;98681.50;;;12.22
41654;BMP280;68687;52.030;7.110;2023-03-31T12:46:36;98685.09;;;12.27
41654;BMP280;68687;52.030;7.110;2023-03-31T12:52:05;98672.94;;;12.25
41654;BMP280;68687;52.030;7.110;2023-03-31T12:57:24;98672.41;;;12.56
41654;BMP280;68687;52.030;7.110;2023-03-31T13:02:37;98660.66;;;12.79
41654;BMP280;68687;52.030;7.110;2023-03-31T13:08:00;98651.69;;;12.74
41654;BMP280;68687;52.030;7.110;2023-03-31T13:10:28;98651.94;;;12.55
41654;BMP280;68687;52.030;7.110;2023-03-31T13:13:01;98655.44;;;12.56
41654;BMP280;68687;52.030;7.110;2023-03-31T13:15:27;98642.97;;;12.50
41654;BMP280;68687;52.030;7.110;2023-03-31T13:18:02;98651.69;;;12.57
41654;BMP280;68687;52.030;7.110;2023-03-31T13:25:46;98647.88;;;12.69
41654;BMP280;68687;52.030;7.110;2023-03-31T13:30:47;98651.34;;;12.53
41654;BMP280;68687;52.030;7.110;2023-03-31T13:33:14;98647.13;;;12.41
41654;BMP280;68687;52.030;7.110;2023-03-31T13:41:42;98643.53;;;12.68
41654;BMP280;68687;52.030;7.110;2023-03-31T13:47:31;98632.03;;;12.90
41654;BMP280;68687;52.030;7.110;2023-03-31T13:50:38;98628.72;;;13.05
41654;BMP280;68687;52.030;7.110;2023-03-31T14:05:17;98631.53;;;12.93
41654;BMP280;68687;52.030;7.110;2023-03-31T14:07:52;98624.13;;;12.66
41654;BMP280;68687;52.030;7.110;2023-03-31T14:10:29;98622.16;;;12.79
41654;BMP280;68687;52.030;7.110;2023-03-31T14:15:35;98623.59;;;13.03
41654;BMP280;68687;52.030;7.110;2023-03-31T14:18:03;98615.31;;;13.10
41654;BMP280;68687;52.030;7.110;2023-03-31T14:20:48;98606.63;;;13.19
41654;BMP280;68687;52.030;7.110;2023-03-31T14:26:04;98591.75;;;13.17
41654;BMP280;68687;52.030;7.110;2023-03-31T14:36:39;98585.00;;;12.97
41654;BMP280;68687;52.030;7.110;2023-03-31T14:39:13;98585.38;;;13.06
41654;BMP280;68687;52.030;7.110;2023-03-31T14:41:40;98575.91;;;13.04
41654;BMP280;68687;52.030;7.110;2023-03-31T14:44:13;98577.94;;;12.91
41654;BMP280;68687;52.030;7.110;2023-03-31T14:46:41;98572.84;;;12.95
41654;BMP280;68687;52.030;7.110;2023-03-31T14:51:42;98575.72;;;12.88
41654;BMP280;68687;52.030;7.110;2023-03-31T14:54:15;98581.84;;;12.84
41654;BMP280;68687;52.030;7.110;2023-03-31T14:56:41;98578.63;;;12.65
41654;BMP280;68687;52.030;7.110;2023-03-31T14:59:08;98595.03;;;12.63
41654;BMP280;68687;52.030;7.110;2023-03-31T15:01:35;98582.06;;;12.60
41654;BMP280;68687;52.030;7.110;2023-03-31T15:04:08;98583.03;;;12.37
41654;BMP280;68687;52.030;7.110;2023-03-31T15:06:35;98576.66;;;12.27
41654;BMP280;68687;52.030;7.110;2023-03-31T15:09:03;98585.78;;;12.26
41654;BMP280;68687;52.030;7.110;2023-03-31T15:11:29;98589.19;;;12.04
41654;BMP280;68687;52.030;7.110;2023-03-31T15:13:55;98585.06;;;12.14
41654;BMP280;68687;52.030;7.110;2023-03-31T15:16:36;98583.84;;;12.21
41654;BMP280;68687;52.030;7.110;2023-03-31T15:21:40;98571.78;;;12.24
41654;BMP280;68687;52.030;7.110;2023-03-31T15:24:06;98561.66;;;12.31
41654;BMP280;68687;52.030;7.110;2023-03-31T15:26:37;98567.03;;;12.14
41654;BMP280;68687;52.030;7.110;2023-03-31T15:31:43;98572.00;;;12.22
41654;BMP280;68687;52.030;7.110;2023-03-31T15:34:16;98573.16;;;12.26
41654;BMP280;68687;52.030;7.110;2023-03-31T15:36:43;98580.06;;;11.89
41654;BMP280;68687;52.030;7.110;2023-03-31T15:39:09;98581.28;;;11.69
41654;BMP280;68687;52.030;7.110;2023-03-31T15:41:36;98581.22;;;11.53
41654;BMP280;68687;52.030;7.110;2023-03-31T15:44:06;98558.38;;;11.38
41654;BMP280;68687;52.030;7.110;2023-03-31T15:49:04;98581.94;;;11.08
41654;BMP280;68687;52.030;7.110;2023-03-31T15:51:36;98592.47;;;10.98
41654;BMP280;68687;52.030;7.110;2023-03-31T15:54:02;98587.44;;;10.90
41654;BMP280;68687;52.030;7.110;2023-03-31T15:56:34;98563.31;;;10.55
41654;BMP280;68687;52.030;7.110;2023-03-31T16:01:42;98562.72;;;10.64
41654;BMP280;68687;52.030;7.110;2023-03-31T16:04:11;98554.78;;;10.69
41654;BMP280;68687;52.030;7.110;2023-03-31T16:06:42;98562.25;;;10.79
41654;BMP280;68687;52.030;7.110;2023-03-31T16:09:25;98561.53;;;10.83
41654;BMP280;68687;52.030;7.110;2023-03-31T16:11:55;98557.69;;;10.79
41654;BMP280;68687;52.030;7.110;2023-03-31T16:14:27;98555.72;;;10.63
41654;BMP280;68687;52.030;7.110;2023-03-31T16:17:03;98554.66;;;10.76
41654;BMP280;68687;52.030;7.110;2023-03-31T16:19:37;98557.47;;;10.69
41654;BMP280;68687;52.030;7.110;2023-03-31T16:22:04;98560.97;;;10.58
41654;BMP280;68687;52.030;7.110;2023-03-31T16:24:32;98550.34;;;10.51
41654;BMP280;68687;52.030;7.110;2023-03-31T16:27:03;98560.59;;;10.66
41654;BMP280;68687;52.030;7.110;2023-03-31T16:29:35;98555.09;;;10.84
41654;BMP280;68687;52.030;7.110;2023-03-31T16:35:00;98551.75;;;10.77
41654;BMP280;68687;52.030;7.110;2023-03-31T16:37:26;98551.63;;;10.72
41654;BMP280;68687;52.030;7.110;2023-03-31T16:39:51;98570.16;;;10.62
41654;BMP280;68687;52.030;7.110;2023-03-31T16:42:18;98562.13;;;10.62
41654;BMP280;68687;52.030;7.110;2023-03-31T16:44:44;98556.88;;;10.56
41654;BMP280;68687;52.030;7.110;2023-03-31T16:47:11;98566.78;;;10.55
41654;BMP280;68687;52.030;7.110;2023-03-31T16:49:36;98561.91;;;10.52
41654;BMP280;68687;52.030;7.110;2023-03-31T16:52:01;98562.25;;;10.56
41654;BMP280;68687;52.030;7.110;2023-03-31T16:54:27;98555.38;;;10.48
41654;BMP280;68687;52.030;7.110;2023-03-31T16:56:52;98557.13;;;10.54
41654;BMP280;68687;52.030;7.110;2023-03-31T16:59:17;98550.25;;;10.46
41654;BMP280;68687;52.030;7.110;2023-03-31T17:01:43;98552.69;;;10.48
41654;BMP280;68687;52.030;7.110;2023-03-31T17:04:09;98554.91;;;10.51
41654;BMP280;68687;52.030;7.110;2023-03-31T17:06:35;98540.31;;;10.35